sensor_id;sensor_type;location;lat;lon;timestamp;temperature;humidity
19728;DHT22;10015;52.530;13.390;2024-03-23T00:55:12;10.70;99.90
19728;DHT22;10015;52.530;13.390;2024-03-23T00:57:38;10.70;99.90
19728;DHT22;10015;52.530;13.390;2024-03-23T01:00:05;10.70;99.90
19728;DHT22;10015;52.530;13.390;2024-03-23T01:02:34;10.70;99.90
19728;DHT22;10015;52.530;13.390;2024-03-23T01:07:55;10.70;99.90
19728;DHT22;10015;52.530;13.390;2024-03-23T01:10:21;10.70;99.90
19728;DHT22;10015;52.530;13.390;2024-03-23T01:12:47;10.70;99.90
19728;DHT22;10015;52.530;13.390;2024-03-23T01:15:13;10.80;99.90
19728;DHT22;10015;52.530;13.390;2024-03-23T01:17:39;10.80;99.90
19728;DHT22;10015;52.530;13.390;2024-03-23T01:20:05;10.80;99.90
19728;DHT22;10015;52.530;13.390;2024-03-23T01:22:32;10.80;99.90
19728;DHT22;10015;52.530;13.390;2024-03-23T01:24:58;10.80;99.90
19728;DHT22;10015;52.530;13.390;2024-03-23T01:27:27;10.80;99.90
19728;DHT22;10015;52.530;13.390;2024-03-23T01:29:53;10.80;99.90
19728;DHT22;10015;52.530;13.390;2024-03-23T01:32:19;10.80;99.90
19728;DHT22;10015;52.530;13.390;2024-03-23T01:34:45;10.80;99.90
19728;DHT22;10015;52.530;13.390;2024-03-23T01:37:11;10.80;99.90
19728;DHT22;10015;52.530;13.390;2024-03-23T01:39:37;10.80;99.90
19728;DHT22;10015;52.530;13.390;2024-03-23T01:42:03;10.80;99.90
19728;DHT22;10015;52.530;13.390;2024-03-23T01:44:29;10.70;99.90
19728;DHT22;10015;52.530;13.390;2024-03-23T01:46:55;10.70;99.90
19728;DHT22;10015;52.530;13.390;2024-03-23T01:49:21;10.80;99.90
19728;DHT22;10015;52.530;13.390;2024-03-23T01:51:47;10.80;99.90
19728;DHT22;10015;52.530;13.390;2024-03-23T01:54:13;10.80;99.90
19728;DHT22;10015;52.530;13.390;2024-03-23T01:56:39;10.80;99.90
19728;DHT22;10015;52.530;13.390;2024-03-23T01:59:06;10.80;99.90
19728;DHT22;10015;52.530;13.390;2024-03-23T02:01:32;10.80;99.90
19728;DHT22;10015;52.530;13.390;2024-03-23T02:03:58;10.80;99.90
19728;DHT22;10015;52.530;13.390;2024-03-23T02:06:24;10.80;99.90
19728;DHT22;10015;52.530;13.390;2024-03-23T02:08:51;10.80;99.90
19728;DHT22;10015;52.530;13.390;2024-03-23T02:11:17;10.80;99.90
19728;DHT22;10015;52.530;13.390;2024-03-23T02:13:43;10.80;99.90
19728;DHT22;10015;52.530;13.390;2024-03-23T02:16:09;10.80;99.90
19728;DHT22;10015;52.530;13.390;2024-03-23T02:18:35;10.80;99.90
19728;DHT22;10015;52.530;13.390;2024-03-23T02:21:01;10.90;99.90
19728;DHT22;10015;52.530;13.390;2024-03-23T02:23:27;10.80;99.90
19728;DHT22;10015;52.530;13.390;2024-03-23T02:25:53;10.70;99.90
19728;DHT22;10015;52.530;13.390;2024-03-23T02:28:19;10.70;99.90
19728;DHT22;10015;52.530;13.390;2024-03-23T02:30:45;10.70;99.90
19728;DHT22;10015;52.530;13.390;2024-03-23T02:33:11;10.80;99.90
19728;DHT22;10015;52.530;13.390;2024-03-23T02:35:37;10.70;99.90
19728;DHT22;10015;52.530;13.390;2024-03-23T02:38:03;10.80;99.90
19728;DHT22;10015;52.530;13.390;2024-03-23T02:40:30;10.80;99.90
19728;DHT22;10015;52.530;13.390;2024-03-23T02:42:55;10.80;99.90
19728;DHT22;10015;52.530;13.390;2024-03-23T02:45:21;10.80;99.90
19728;DHT22;10015;52.530;13.390;2024-03-23T02:47:47;10.80;99.90
19728;DHT22;10015;52.530;13.390;2024-03-23T02:50:20;10.80;99.90
19728;DHT22;10015;52.530;13.390;2024-03-23T02:52:47;10.80;99.90
19728;DHT22;10015;52.530;13.390;2024-03-23T02:55:13;10.80;99.90
19728;DHT22;10015;52.530;13.390;2024-03-23T02:57:39;10.80;99.90
19728;DHT22;10015;52.530;13.390;2024-03-23T03:00:06;10.80;99.90
19728;DHT22;10015;52.530;13.390;2024-03-23T03:02:33;10.80;99.90
19728;DHT22;10015;52.530;13.390;2024-03-23T03:04:59;10.80;99.90
19728;DHT22;10015;52.530;13.390;2024-03-23T03:07:25;10.80;99.90
19728;DHT22;10015;52.530;13.390;2024-03-23T03:09:51;10.70;99.90
19728;DHT22;10015;52.530;13.390;2024-03-23T03:12:17;10.70;99.90
19728;DHT22;10015;52.530;13.390;2024-03-23T03:14:43;10.70;99.90
19728;DHT22;10015;52.530;13.390;2024-03-23T03:17:09;10.70;99.90
19728;DHT22;10015;52.530;13.390;2024-03-23T03:19:35;10.70;99.90
19728;DHT22;10015;52.530;13.390;2024-03-23T03:22:01;10.70;99.90
19728;DHT22;10015;52.530;13.390;2024-03-23T03:24:27;10.70;99.90
19728;DHT22;10015;52.530;13.390;2024-03-23T03:26:52;10.70;99.90
19728;DHT22;10015;52.530;13.390;2024-03-23T03:29:18;10.60;99.90
19728;DHT22;10015;52.530;13.390;2024-03-23T03:31:45;10.60;99.90
19728;DHT22;10015;52.530;13.390;2024-03-23T03:34:11;10.60;99.90
19728;DHT22;10015;52.530;13.390;2024-03-23T03:36:36;10.60;99.90
19728;DHT22;10015;52.530;13.390;2024-03-23T03:39:02;10.60;99.90
19728;DHT22;10015;52.530;13.390;2024-03-23T03:41:31;10.60;99.90
19728;DHT22;10015;52.530;13.390;2024-03-23T03:43:57;10.60;99.90
19728;DHT22;10015;52.530;13.390;2024-03-23T03:46:27;10.60;99.90
19728;DHT22;10015;52.530;13.390;2024-03-23T03:48:54;10.60;99.90
19728;DHT22;10015;52.530;13.390;2024-03-23T03:51:20;10.60;99.90
19728;DHT22;10015;52.530;13.390;2024-03-23T03:53:46;10.60;99.90
19728;DHT22;10015;52.530;13.390;2024-03-23T03:56:12;10.50;99.90
19728;DHT22;10015;52.530;13.390;2024-03-23T03:58:38;10.40;99.90
19728;DHT22;10015;52.530;13.390;2024-03-23T04:01:05;10.40;99.90
19728;DHT22;10015;52.530;13.390;2024-03-23T04:03:31;10.30;99.90
19728;DHT22;10015;52.530;13.390;2024-03-23T04:05:57;10.20;99.90
19728;DHT22;10015;52.530;13.390;2024-03-23T04:08:24;10.10;99.90
19728;DHT22;10015;52.530;13.390;2024-03-23T04:10:50;10.10;99.90
19728;DHT22;10015;52.530;13.390;2024-03-23T04:13:16;10.20;99.90
19728;DHT22;10015;52.530;13.390;2024-03-23T04:15:42;10.20;99.90
19728;DHT22;10015;52.530;13.390;2024-03-23T04:18:08;10.10;99.90
19728;DHT22;10015;52.530;13.390;2024-03-23T04:20:35;10.10;99.90
19728;DHT22;10015;52.530;13.390;2024-03-23T04:23:01;10.10;99.90
19728;DHT22;10015;52.530;13.390;2024-03-23T04:25:27;10.10;99.90
19728;DHT22;10015;52.530;13.390;2024-03-23T04:27:53;10.10;99.90
19728;DHT22;10015;52.530;13.390;2024-03-23T04:30:19;10.10;99.90
19728;DHT22;10015;52.530;13.390;2024-03-23T04:32:45;10.10;99.90
19728;DHT22;10015;52.530;13.390;2024-03-23T04:35:11;10.10;99.90
19728;DHT22;10015;52.530;13.390;2024-03-23T04:37:38;10.10;99.90
19728;DHT22;10015;52.530;13.390;2024-03-23T04:40:07;10.00;99.90
19728;DHT22;10015;52.530;13.390;2024-03-23T04:42:33;10.10;99.90
19728;DHT22;10015;52.530;13.390;2024-03-23T04:44:59;10.10;99.90
19728;DHT22;10015;52.530;13.390;2024-03-23T04:47:25;10.10;99.90
19728;DHT22;10015;52.530;13.390;2024-03-23T04:49:52;10.10;99.90
19728;DHT22;10015;52.530;13.390;2024-03-23T04:52:18;10.10;99.90
19728;DHT22;10015;52.530;13.390;2024-03-23T04:54:44;10.10;99.90
19728;DHT22;10015;52.530;13.390;2024-03-23T04:57:13;10.10;99.90
19728;DHT22;10015;52.530;13.390;2024-03-23T04:59:46;10.00;99.90
19728;DHT22;10015;52.530;13.390;2024-03-23T05:02:13;10.00;99.90
19728;DHT22;10015;52.530;13.390;2024-03-23T05:04:41;10.00;99.90
19728;DHT22;10015;52.530;13.390;2024-03-23T05:07:08;10.00;99.90
19728;DHT22;10015;52.530;13.390;2024-03-23T05:09:34;10.00;99.90
19728;DHT22;10015;52.530;13.390;2024-03-23T05:12:00;10.00;99.90
19728;DHT22;10015;52.530;13.390;2024-03-23T05:14:26;10.00;99.90
19728;DHT22;10015;52.530;13.390;2024-03-23T05:16:54;9.90;99.90
19728;DHT22;10015;52.530;13.390;2024-03-23T05:19:20;9.90;99.90
19728;DHT22;10015;52.530;13.390;2024-03-23T05:21:46;9.90;99.90
19728;DHT22;10015;52.530;13.390;2024-03-23T05:24:12;9.90;99.90
19728;DHT22;10015;52.530;13.390;2024-03-23T05:26:38;9.90;99.90
19728;DHT22;10015;52.530;13.390;2024-03-23T05:29:04;9.90;99.90
19728;DHT22;10015;52.530;13.390;2024-03-23T05:31:32;9.90;99.90
19728;DHT22;10015;52.530;13.390;2024-03-23T05:33:58;9.90;99.90
19728;DHT22;10015;52.530;13.390;2024-03-23T05:36:24;9.90;99.90
19728;DHT22;10015;52.530;13.390;2024-03-23T05:38:50;9.90;99.90
19728;DHT22;10015;52.530;13.390;2024-03-23T05:41:16;9.90;99.90
19728;DHT22;10015;52.530;13.390;2024-03-23T05:43:42;9.90;99.90
19728;DHT22;10015;52.530;13.390;2024-03-23T05:46:09;9.90;99.90
19728;DHT22;10015;52.530;13.390;2024-03-23T05:48:35;9.90;99.90
19728;DHT22;10015;52.530;13.390;2024-03-23T05:51:02;9.80;99.90
19728;DHT22;10015;52.530;13.390;2024-03-23T05:53:28;9.90;99.90
19728;DHT22;10015;52.530;13.390;2024-03-23T05:56:03;9.90;99.90
19728;DHT22;10015;52.530;13.390;2024-03-23T05:58:33;9.80;99.90
19728;DHT22;10015;52.530;13.390;2024-03-23T06:01:02;9.80;99.90
19728;DHT22;10015;52.530;13.390;2024-03-23T06:03:28;9.90;99.90
19728;DHT22;10015;52.530;13.390;2024-03-23T06:05:55;9.90;99.90
19728;DHT22;10015;52.530;13.390;2024-03-23T06:08:22;9.90;99.90
19728;DHT22;10015;52.530;13.390;2024-03-23T06:10:48;10.00;99.90
19728;DHT22;10015;52.530;13.390;2024-03-23T06:13:14;10.00;99.90
19728;DHT22;10015;52.530;13.390;2024-03-23T06:15:40;9.90;99.90
19728;DHT22;10015;52.530;13.390;2024-03-23T06:18:06;10.00;99.90
19728;DHT22;10015;52.530;13.390;2024-03-23T06:20:33;10.00;99.90
19728;DHT22;10015;52.530;13.390;2024-03-23T06:23:01;10.00;99.90
19728;DHT22;10015;52.530;13.390;2024-03-23T06:25:27;10.00;99.90
19728;DHT22;10015;52.530;13.390;2024-03-23T06:27:53;10.00;99.90
19728;DHT22;10015;52.530;13.390;2024-03-23T06:30:19;10.10;99.90
19728;DHT22;10015;52.530;13.390;2024-03-23T06:32:45;10.00;99.90
19728;DHT22;10015;52.530;13.390;2024-03-23T06:35:11;10.00;99.90
19728;DHT22;10015;52.530;13.390;2024-03-23T06:37:37;10.00;99.90
19728;DHT22;10015;52.530;13.390;2024-03-23T06:40:05;10.00;99.90
19728;DHT22;10015;52.530;13.390;2024-03-23T06:42:34;10.00;99.90
19728;DHT22;10015;52.530;13.390;2024-03-23T06:45:00;10.00;99.90
19728;DHT22;10015;52.530;13.390;2024-03-23T06:47:26;10.00;99.90
19728;DHT22;10015;52.530;13.390;2024-03-23T06:49:52;10.00;99.90
19728;DHT22;10015;52.530;13.390;2024-03-23T06:52:18;10.00;99.90
19728;DHT22;10015;52.530;13.390;2024-03-23T06:54:44;10.10;99.90
19728;DHT22;10015;52.530;13.390;2024-03-23T06:57:11;10.10;99.90
19728;DHT22;10015;52.530;13.390;2024-03-23T06:59:38;10.10;99.90
19728;DHT22;10015;52.530;13.390;2024-03-23T07:02:05;10.10;99.90
19728;DHT22;10015;52.530;13.390;2024-03-23T07:04:34;10.10;99.90
19728;DHT22;10015;52.530;13.390;2024-03-23T07:07:01;10.10;99.90
19728;DHT22;10015;52.530;13.390;2024-03-23T07:09:28;10.20;99.90
19728;DHT22;10015;52.530;13.390;2024-03-23T07:11:56;10.10;99.90
19728;DHT22;10015;52.530;13.390;2024-03-23T07:14:23;10.20;99.90
19728;DHT22;10015;52.530;13.390;2024-03-23T07:16:49;10.10;99.90
19728;DHT22;10015;52.530;13.390;2024-03-23T07:19:16;10.10;99.90
19728;DHT22;10015;52.530;13.390;2024-03-23T07:21:45;10.00;99.90
19728;DHT22;10015;52.530;13.390;2024-03-23T07:24:11;10.00;99.90
19728;DHT22;10015;52.530;13.390;2024-03-23T07:26:38;10.10;99.90
19728;DHT22;10015;52.530;13.390;2024-03-23T07:29:04;10.10;99.90
19728;DHT22;10015;52.530;13.390;2024-03-23T07:31:30;10.10;99.90
19728;DHT22;10015;52.530;13.390;2024-03-23T07:33:56;10.10;99.90
19728;DHT22;10015;52.530;13.390;2024-03-23T07:36:22;10.10;99.90
19728;DHT22;10015;52.530;13.390;2024-03-23T07:38:48;10.20;99.90
19728;DHT22;10015;52.530;13.390;2024-03-23T07:41:17;10.20;99.90
19728;DHT22;10015;52.530;13.390;2024-03-23T07:43:43;10.20;99.90
19728;DHT22;10015;52.530;13.390;2024-03-23T07:46:10;10.10;99.90
19728;DHT22;10015;52.530;13.390;2024-03-23T07:48:36;10.20;99.90
19728;DHT22;10015;52.530;13.390;2024-03-23T07:51:09;10.20;99.90
19728;DHT22;10015;52.530;13.390;2024-03-23T07:53:36;10.20;99.90
19728;DHT22;10015;52.530;13.390;2024-03-23T07:56:09;10.20;99.90
19728;DHT22;10015;52.530;13.390;2024-03-23T07:58:38;10.20;99.90
19728;DHT22;10015;52.530;13.390;2024-03-23T08:01:06;10.20;99.90
19728;DHT22;10015;52.530;13.390;2024-03-23T08:03:36;10.20;99.90
19728;DHT22;10015;52.530;13.390;2024-03-23T08:06:16;10.20;99.90
19728;DHT22;10015;52.530;13.390;2024-03-23T08:08:45;10.20;99.90
19728;DHT22;10015;52.530;13.390;2024-03-23T08:11:11;10.10;99.90
19728;DHT22;10015;52.530;13.390;2024-03-23T08:13:39;10.10;99.90
19728;DHT22;10015;52.530;13.390;2024-03-23T08:16:06;10.00;99.90
19728;DHT22;10015;52.530;13.390;2024-03-23T08:18:32;10.00;99.90
19728;DHT22;10015;52.530;13.390;2024-03-23T08:21:04;9.90;99.90
19728;DHT22;10015;52.530;13.390;2024-03-23T08:23:32;9.80;99.90
19728;DHT22;10015;52.530;13.390;2024-03-23T08:30:11;9.80;99.90
19728;DHT22;10015;52.530;13.390;2024-03-23T08:32:45;9.70;99.90
19728;DHT22;10015;52.530;13.390;2024-03-23T08:35:11;9.60;99.90
19728;DHT22;10015;52.530;13.390;2024-03-23T08:37:37;9.60;99.90
19728;DHT22;10015;52.530;13.390;2024-03-23T08:40:03;9.60;99.90
19728;DHT22;10015;52.530;13.390;2024-03-23T08:42:30;9.50;99.90
19728;DHT22;10015;52.530;13.390;2024-03-23T08:44:56;9.50;99.90
19728;DHT22;10015;52.530;13.390;2024-03-23T08:47:22;9.50;99.90
19728;DHT22;10015;52.530;13.390;2024-03-23T08:49:48;9.50;99.90
19728;DHT22;10015;52.530;13.390;2024-03-23T08:52:15;9.50;99.90
19728;DHT22;10015;52.530;13.390;2024-03-23T08:54:41;9.50;99.90
19728;DHT22;10015;52.530;13.390;2024-03-23T08:57:07;9.30;99.90
19728;DHT22;10015;52.530;13.390;2024-03-23T08:59:33;9.20;99.90
19728;DHT22;10015;52.530;13.390;2024-03-23T09:01:59;9.10;99.90
19728;DHT22;10015;52.530;13.390;2024-03-23T09:04:25;9.00;99.90
19728;DHT22;10015;52.530;13.390;2024-03-23T09:06:51;9.10;99.90
19728;DHT22;10015;52.530;13.390;2024-03-23T09:09:17;9.10;99.90
19728;DHT22;10015;52.530;13.390;2024-03-23T09:11:43;9.10;99.90
19728;DHT22;10015;52.530;13.390;2024-03-23T09:14:09;9.10;99.90
19728;DHT22;10015;52.530;13.390;2024-03-23T09:16:35;9.00;99.90
19728;DHT22;10015;52.530;13.390;2024-03-23T09:19:01;8.90;99.90
19728;DHT22;10015;52.530;13.390;2024-03-23T09:21:27;8.80;99.90
19728;DHT22;10015;52.530;13.390;2024-03-23T09:23:53;8.70;99.90
19728;DHT22;10015;52.530;13.390;2024-03-23T09:26:19;8.70;99.90
19728;DHT22;10015;52.530;13.390;2024-03-23T09:28:48;8.80;99.90
19728;DHT22;10015;52.530;13.390;2024-03-23T09:31:14;8.80;99.90
19728;DHT22;10015;52.530;13.390;2024-03-23T09:33:41;8.80;99.90
19728;DHT22;10015;52.530;13.390;2024-03-23T09:36:08;8.90;99.90
19728;DHT22;10015;52.530;13.390;2024-03-23T09:38:34;8.90;99.90
19728;DHT22;10015;52.530;13.390;2024-03-23T09:41:00;8.80;99.90
19728;DHT22;10015;52.530;13.390;2024-03-23T09:43:26;8.80;99.90
19728;DHT22;10015;52.530;13.390;2024-03-23T09:45:53;8.80;99.90
19728;DHT22;10015;52.530;13.390;2024-03-23T09:48:19;8.80;99.90
19728;DHT22;10015;52.530;13.390;2024-03-23T09:50:45;8.80;99.90
19728;DHT22;10015;52.530;13.390;2024-03-23T09:53:13;8.80;99.90
19728;DHT22;10015;52.530;13.390;2024-03-23T09:55:40;8.80;99.90
19728;DHT22;10015;52.530;13.390;2024-03-23T09:58:07;8.80;99.90
19728;DHT22;10015;52.530;13.390;2024-03-23T10:00:34;8.80;99.90
19728;DHT22;10015;52.530;13.390;2024-03-23T10:03:01;8.80;99.90
19728;DHT22;10015;52.530;13.390;2024-03-23T10:05:29;8.80;99.90
19728;DHT22;10015;52.530;13.390;2024-03-23T10:07:57;8.70;99.90
19728;DHT22;10015;52.530;13.390;2024-03-23T10:10:25;8.70;99.90
19728;DHT22;10015;52.530;13.390;2024-03-23T10:12:54;8.60;99.90
19728;DHT22;10015;52.530;13.390;2024-03-23T10:15:22;8.60;99.90
19728;DHT22;10015;52.530;13.390;2024-03-23T10:17:48;8.60;99.90
19728;DHT22;10015;52.530;13.390;2024-03-23T10:20:24;8.60;99.90
19728;DHT22;10015;52.530;13.390;2024-03-23T10:22:50;8.40;99.90
19728;DHT22;10015;52.530;13.390;2024-03-23T10:25:23;8.50;99.90
19728;DHT22;10015;52.530;13.390;2024-03-23T10:27:59;8.50;99.90
19728;DHT22;10015;52.530;13.390;2024-03-23T10:30:26;8.60;99.90
19728;DHT22;10015;52.530;13.390;2024-03-23T10:33:09;8.50;99.90
19728;DHT22;10015;52.530;13.390;2024-03-23T10:35:36;8.30;99.90
19728;DHT22;10015;52.530;13.390;2024-03-23T10:38:07;8.20;99.90
19728;DHT22;10015;52.530;13.390;2024-03-23T10:40:36;8.30;99.90
19728;DHT22;10015;52.530;13.390;2024-03-23T10:43:06;8.30;99.90
19728;DHT22;10015;52.530;13.390;2024-03-23T10:45:34;8.40;99.90
19728;DHT22;10015;52.530;13.390;2024-03-23T10:48:00;8.50;99.90
19728;DHT22;10015;52.530;13.390;2024-03-23T10:50:26;8.40;99.90
19728;DHT22;10015;52.530;13.390;2024-03-23T10:52:53;8.40;99.90
19728;DHT22;10015;52.530;13.390;2024-03-23T10:55:23;8.30;99.90
19728;DHT22;10015;52.530;13.390;2024-03-23T10:57:56;8.30;99.90
19728;DHT22;10015;52.530;13.390;2024-03-23T11:00:25;8.40;99.90
19728;DHT22;10015;52.530;13.390;2024-03-23T11:02:51;8.50;99.90
19728;DHT22;10015;52.530;13.390;2024-03-23T11:07:53;8.60;99.90
19728;DHT22;10015;52.530;13.390;2024-03-23T11:10:29;8.60;99.90
19728;DHT22;10015;52.530;13.390;2024-03-23T11:12:57;8.70;99.90
19728;DHT22;10015;52.530;13.390;2024-03-23T11:15:23;8.70;99.90
19728;DHT22;10015;52.530;13.390;2024-03-23T11:18:06;8.70;99.90
19728;DHT22;10015;52.530;13.390;2024-03-23T11:20:34;8.70;99.90
19728;DHT22;10015;52.530;13.390;2024-03-23T11:23:00;8.70;99.90
19728;DHT22;10015;52.530;13.390;2024-03-23T11:25:27;8.50;99.90
19728;DHT22;10015;52.530;13.390;2024-03-23T11:28:08;8.60;99.90
19728;DHT22;10015;52.530;13.390;2024-03-23T11:30:35;8.50;99.90
19728;DHT22;10015;52.530;13.390;2024-03-23T11:33:03;8.50;99.90
19728;DHT22;10015;52.530;13.390;2024-03-23T11:35:33;8.50;99.90
19728;DHT22;10015;52.530;13.390;2024-03-23T11:40:36;8.70;99.90
19728;DHT22;10015;52.530;13.390;2024-03-23T11:43:04;8.90;99.90
19728;DHT22;10015;52.530;13.390;2024-03-23T11:45:35;9.00;99.90
19728;DHT22;10015;52.530;13.390;2024-03-23T11:48:12;9.10;99.90
19728;DHT22;10015;52.530;13.390;2024-03-23T11:50:40;9.10;99.90
19728;DHT22;10015;52.530;13.390;2024-03-23T11:55:42;9.40;99.90
19728;DHT22;10015;52.530;13.390;2024-03-23T11:58:08;9.50;99.90
19728;DHT22;10015;52.530;13.390;2024-03-23T12:00:35;9.50;99.90
19728;DHT22;10015;52.530;13.390;2024-03-23T12:03:21;9.50;99.90
19728;DHT22;10015;52.530;13.390;2024-03-23T12:06:01;9.70;99.90
19728;DHT22;10015;52.530;13.390;2024-03-23T12:08:35;9.70;99.90
19728;DHT22;10015;52.530;13.390;2024-03-23T12:11:12;9.60;99.90
19728;DHT22;10015;52.530;13.390;2024-03-23T12:13:39;9.70;99.90
19728;DHT22;10015;52.530;13.390;2024-03-23T12:18:44;9.50;99.90
19728;DHT22;10015;52.530;13.390;2024-03-23T12:21:10;9.30;99.90
19728;DHT22;10015;52.530;13.390;2024-03-23T12:23:39;9.40;99.90
19728;DHT22;10015;52.530;13.390;2024-03-23T12:26:06;9.50;99.90
19728;DHT22;10015;52.530;13.390;2024-03-23T12:28:32;9.50;99.90
19728;DHT22;10015;52.530;13.390;2024-03-23T12:30:58;9.60;99.90
19728;DHT22;10015;52.530;13.390;2024-03-23T12:33:24;9.50;99.90
19728;DHT22;10015;52.530;13.390;2024-03-23T12:35:51;9.60;99.90
19728;DHT22;10015;52.530;13.390;2024-03-23T12:38:17;9.60;99.90
19728;DHT22;10015;52.530;13.390;2024-03-23T12:40:47;9.50;99.90
19728;DHT22;10015;52.530;13.390;2024-03-23T12:43:14;9.60;99.90
19728;DHT22;10015;52.530;13.390;2024-03-23T12:45:40;9.70;99.90
19728;DHT22;10015;52.530;13.390;2024-03-23T12:48:06;9.60;99.90
19728;DHT22;10015;52.530;13.390;2024-03-23T12:50:33;9.70;99.90
19728;DHT22;10015;52.530;13.390;2024-03-23T12:52:59;9.70;99.90
19728;DHT22;10015;52.530;13.390;2024-03-23T12:55:25;9.40;99.90
19728;DHT22;10015;52.530;13.390;2024-03-23T12:57:51;9.50;99.90
19728;DHT22;10015;52.530;13.390;2024-03-23T13:00:17;9.60;99.90
19728;DHT22;10015;52.530;13.390;2024-03-23T13:02:44;9.60;99.90
19728;DHT22;10015;52.530;13.390;2024-03-23T13:05:10;9.60;99.90
19728;DHT22;10015;52.530;13.390;2024-03-23T13:07:36;9.50;99.90
19728;DHT22;10015;52.530;13.390;2024-03-23T13:10:04;9.50;99.90
19728;DHT22;10015;52.530;13.390;2024-03-23T13:12:30;9.50;99.90
19728;DHT22;10015;52.530;13.390;2024-03-23T13:14:56;9.50;99.90
19728;DHT22;10015;52.530;13.390;2024-03-23T13:17:22;9.60;99.90
19728;DHT22;10015;52.530;13.390;2024-03-23T13:19:48;9.80;99.90
19728;DHT22;10015;52.530;13.390;2024-03-23T13:22:14;10.00;99.90
19728;DHT22;10015;52.530;13.390;2024-03-23T13:24:40;10.20;99.90
19728;DHT22;10015;52.530;13.390;2024-03-23T13:27:06;10.20;99.90
19728;DHT22;10015;52.530;13.390;2024-03-23T13:29:34;10.20;99.90
19728;DHT22;10015;52.530;13.390;2024-03-23T13:32:06;10.40;99.90
19728;DHT22;10015;52.530;13.390;2024-03-23T13:34:32;10.90;99.90
19728;DHT22;10015;52.530;13.390;2024-03-23T13:36:59;10.90;99.90
19728;DHT22;10015;52.530;13.390;2024-03-23T13:39:25;11.00;99.90
19728;DHT22;10015;52.530;13.390;2024-03-23T13:41:53;11.30;99.90
19728;DHT22;10015;52.530;13.390;2024-03-23T13:44:21;11.70;99.90
19728;DHT22;10015;52.530;13.390;2024-03-23T13:46:47;11.80;99.90
19728;DHT22;10015;52.530;13.390;2024-03-23T13:49:25;12.00;99.90
19728;DHT22;10015;52.530;13.390;2024-03-23T13:51:53;11.60;99.90
19728;DHT22;10015;52.530;13.390;2024-03-23T13:54:19;11.50;99.90
19728;DHT22;10015;52.530;13.390;2024-03-23T13:56:45;11.10;99.90
19728;DHT22;10015;52.530;13.390;2024-03-23T13:59:11;11.20;99.90
19728;DHT22;10015;52.530;13.390;2024-03-23T14:01:37;11.30;99.90
19728;DHT22;10015;52.530;13.390;2024-03-23T14:04:03;11.30;99.90
19728;DHT22;10015;52.530;13.390;2024-03-23T14:06:29;11.40;99.90
19728;DHT22;10015;52.530;13.390;2024-03-23T14:08:55;11.40;99.90
19728;DHT22;10015;52.530;13.390;2024-03-23T14:11:21;11.10;99.90
19728;DHT22;10015;52.530;13.390;2024-03-23T14:13:47;10.90;99.90
19728;DHT22;10015;52.530;13.390;2024-03-23T14:16:13;10.70;99.90
19728;DHT22;10015;52.530;13.390;2024-03-23T14:18:39;10.50;99.90
19728;DHT22;10015;52.530;13.390;2024-03-23T14:21:05;10.40;99.90
19728;DHT22;10015;52.530;13.390;2024-03-23T14:23:31;10.20;99.90
19728;DHT22;10015;52.530;13.390;2024-03-23T14:26:00;10.20;99.90
19728;DHT22;10015;52.530;13.390;2024-03-23T14:28:25;10.20;99.90
19728;DHT22;10015;52.530;13.390;2024-03-23T14:30:54;10.30;99.90
19728;DHT22;10015;52.530;13.390;2024-03-23T14:33:21;10.40;99.90
19728;DHT22;10015;52.530;13.390;2024-03-23T14:35:56;11.20;99.90
19728;DHT22;10015;52.530;13.390;2024-03-23T14:38:25;11.70;99.90
19728;DHT22;10015;52.530;13.390;2024-03-23T14:40:51;12.50;99.90
19728;DHT22;10015;52.530;13.390;2024-03-23T14:43:18;13.10;99.90
19728;DHT22;10015;52.530;13.390;2024-03-23T14:48:33;14.20;99.90
19728;DHT22;10015;52.530;13.390;2024-03-23T14:50:59;14.50;99.90
19728;DHT22;10015;52.530;13.390;2024-03-23T14:53:26;14.80;99.90
19728;DHT22;10015;52.530;13.390;2024-03-23T14:55:59;14.90;99.90
19728;DHT22;10015;52.530;13.390;2024-03-23T14:58:26;14.80;99.90
19728;DHT22;10015;52.530;13.390;2024-03-23T15:00:52;14.70;99.90
19728;DHT22;10015;52.530;13.390;2024-03-23T15:03:19;14.40;99.90
19728;DHT22;10015;52.530;13.390;2024-03-23T15:05:55;14.20;99.90
19728;DHT22;10015;52.530;13.390;2024-03-23T15:08:22;13.90;99.90
19728;DHT22;10015;52.530;13.390;2024-03-23T15:10:48;13.90;99.90
19728;DHT22;10015;52.530;13.390;2024-03-23T15:15:51;13.40;99.90
19728;DHT22;10015;52.530;13.390;2024-03-23T15:18:18;13.40;99.90
19728;DHT22;10015;52.530;13.390;2024-03-23T15:20:54;13.40;99.90
19728;DHT22;10015;52.530;13.390;2024-03-23T15:23:21;13.70;99.90
19728;DHT22;10015;52.530;13.390;2024-03-23T15:26:00;13.90;99.90
19728;DHT22;10015;52.530;13.390;2024-03-23T15:28:27;14.20;99.90
19728;DHT22;10015;52.530;13.390;2024-03-23T15:31:07;14.40;99.90
19728;DHT22;10015;52.530;13.390;2024-03-23T15:33:34;14.50;99.90
19728;DHT22;10015;52.530;13.390;2024-03-23T15:36:01;14.70;99.90
19728;DHT22;10015;52.530;13.390;2024-03-23T15:38:27;14.90;99.90
19728;DHT22;10015;52.530;13.390;2024-03-23T15:40:55;14.90;99.90
19728;DHT22;10015;52.530;13.390;2024-03-23T15:43:21;14.90;99.90
19728;DHT22;10015;52.530;13.390;2024-03-23T15:46:00;14.90;99.90
19728;DHT22;10015;52.530;13.390;2024-03-23T15:48:28;14.90;99.90
19728;DHT22;10015;52.530;13.390;2024-03-23T15:50:55;14.50;99.90
19728;DHT22;10015;52.530;13.390;2024-03-23T15:53:22;13.90;99.90
19728;DHT22;10015;52.530;13.390;2024-03-23T15:56:07;13.30;99.90
19728;DHT22;10015;52.530;13.390;2024-03-23T15:58:33;12.80;99.90
19728;DHT22;10015;52.530;13.390;2024-03-23T16:01:08;12.50;99.90
19728;DHT22;10015;52.530;13.390;2024-03-23T16:03:37;12.40;99.90
19728;DHT22;10015;52.530;13.390;2024-03-23T16:06:07;12.20;99.90
19728;DHT22;10015;52.530;13.390;2024-03-23T16:08:34;12.00;99.90
19728;DHT22;10015;52.530;13.390;2024-03-23T16:11:05;12.00;99.90
19728;DHT22;10015;52.530;13.390;2024-03-23T16:13:34;11.70;99.90
19728;DHT22;10015;52.530;13.390;2024-03-23T16:16:03;11.60;99.90
19728;DHT22;10015;52.530;13.390;2024-03-23T16:18:30;11.50;99.90
19728;DHT22;10015;52.530;13.390;2024-03-23T16:21:01;11.50;99.90
19728;DHT22;10015;52.530;13.390;2024-03-23T16:23:28;11.20;99.90
19728;DHT22;10015;52.530;13.390;2024-03-23T16:25:55;10.90;99.90
19728;DHT22;10015;52.530;13.390;2024-03-23T16:28:25;10.80;99.90
19728;DHT22;10015;52.530;13.390;2024-03-23T16:31:02;10.70;99.90
19728;DHT22;10015;52.530;13.390;2024-03-23T16:33:29;10.70;99.90
19728;DHT22;10015;52.530;13.390;2024-03-23T16:36:00;10.60;99.90
19728;DHT22;10015;52.530;13.390;2024-03-23T16:38:28;10.50;99.90
19728;DHT22;10015;52.530;13.390;2024-03-23T16:40:56;10.40;99.90